Orbital elements of COSMOS 2251 DEB
| Launched | 15 June 1993 |
| Flight ended | – |
| Launch site | Plesetsk Missile and Space Complex, Russia |
| Owner | Commonwealth of Independent States (former USSR) |
| NORAD ID | 33816 |
| Date fetched |
Epoch osculation |
Inc. [°] |
Ecc. | RA asc node [hr] |
Arg Peri. [°] |
Mean anom [°] |
Mean motion [rev/day] |
Abs. mag |
| Date fetched |
Epoch osculation |
Inc. [°] |
Ecc. | RA asc node [hr] |
Arg Peri. [°] |
Mean anom [°] |
Mean motion [rev/day] |
Abs. mag |
| 2026 May 04 17:57 | 2026 Apr 30 08:25:11 | 73.8953 | 0.02652 | 15.3599 | 217.2997 | 140.9454 | 13.82012 | – |
| 2026 May 03 17:57 | 2026 Apr 30 08:25:11 | 73.8953 | 0.02652 | 15.3599 | 217.2997 | 140.9454 | 13.82012 | – |
| 2026 May 02 17:57 | 2026 Apr 30 08:25:11 | 73.8953 | 0.02652 | 15.3599 | 217.2997 | 140.9454 | 13.82012 | – |
| 2026 May 01 17:56 | 2026 Apr 30 08:25:11 | 73.8953 | 0.02652 | 15.3599 | 217.2997 | 140.9454 | 13.82012 | – |
| 2026 Apr 30 17:56 | 2026 Apr 30 08:25:11 | 73.8953 | 0.02652 | 15.3599 | 217.2997 | 140.9454 | 13.82012 | – |
| 2026 Apr 29 17:57 | 2026 Apr 24 08:13:29 | 73.8950 | 0.02652 | 16.0391 | 228.5768 | 140.9454 | 13.82012 | – |
| 2026 Apr 28 17:56 | 2026 Apr 24 08:13:29 | 73.8950 | 0.02652 | 16.0391 | 228.5768 | 140.9454 | 13.82012 | – |
| 2026 Apr 27 17:58 | 2026 Apr 24 08:13:29 | 73.8950 | 0.02652 | 16.0391 | 228.5768 | 140.9454 | 13.82012 | – |
| 2026 Apr 26 17:58 | 2026 Apr 24 08:13:29 | 73.8950 | 0.02652 | 16.0391 | 228.5768 | 140.9454 | 13.82012 | – |
| 2026 Apr 25 17:58 | 2026 Apr 24 08:13:29 | 73.8950 | 0.02652 | 16.0391 | 228.5768 | 140.9454 | 13.82012 | – |
| 2026 Apr 24 17:59 | 2026 Apr 24 08:13:29 | 73.8950 | 0.02652 | 16.0391 | 228.5768 | 140.9454 | 13.82012 | – |
| 2026 Apr 23 17:57 | 2026 Apr 19 08:21:06 | 73.8943 | 0.02652 | 16.6037 | 237.9561 | 140.9454 | 13.82012 | – |
| 2026 Apr 22 17:57 | 2026 Apr 19 08:21:06 | 73.8943 | 0.02652 | 16.6037 | 237.9561 | 140.9454 | 13.82012 | – |
| 2026 Apr 21 17:57 | 2026 Apr 19 08:21:06 | 73.8943 | 0.02652 | 16.6037 | 237.9561 | 140.9454 | 13.82012 | – |
| 2026 Apr 20 17:57 | 2026 Apr 19 08:21:06 | 73.8943 | 0.02652 | 16.6037 | 237.9561 | 140.9454 | 13.82012 | – |
| 2026 Apr 19 17:58 | 2026 Apr 19 08:21:06 | 73.8943 | 0.02652 | 16.6037 | 237.9561 | 140.9454 | 13.82012 | – |
| 2026 Apr 18 17:56 | 2026 Apr 13 02:56:40 | 73.8940 | 0.02651 | 17.3075 | 249.6565 | 140.9454 | 13.82012 | – |
| 2026 Apr 16 17:57 | 2026 Apr 13 02:56:40 | 73.8940 | 0.02651 | 17.3075 | 249.6565 | 140.9454 | 13.82012 | – |
| 2026 Apr 14 17:57 | 2026 Apr 13 02:56:40 | 73.8940 | 0.02651 | 17.3075 | 249.6565 | 140.9454 | 13.82012 | – |
| 2026 Apr 13 17:57 | 2026 Apr 13 02:56:40 | 73.8940 | 0.02651 | 17.3075 | 249.6565 | 140.9454 | 13.82012 | – |
| 2026 Apr 12 17:57 | 2026 Apr 08 11:45:28 | 73.8934 | 0.02650 | 17.8313 | 258.3707 | 140.9454 | 13.82012 | – |
| 2026 Apr 11 17:57 | 2026 Apr 08 11:45:28 | 73.8934 | 0.02650 | 17.8313 | 258.3707 | 140.9454 | 13.82012 | – |
| 2026 Apr 10 17:58 | 2026 Apr 08 11:45:28 | 73.8934 | 0.02650 | 17.8313 | 258.3707 | 140.9454 | 13.82012 | – |
| 2026 Apr 09 18:01 | 2026 Apr 08 11:45:28 | 73.8934 | 0.02650 | 17.8313 | 258.3707 | 140.9454 | 13.82012 | – |
| 2026 Apr 08 17:57 | 2026 Apr 08 11:45:28 | 73.8934 | 0.02650 | 17.8313 | 258.3707 | 140.9454 | 13.82012 | – |
| 2026 Apr 07 17:57 | 2026 Apr 02 06:21:01 | 73.8933 | 0.02650 | 18.5351 | 270.0843 | 140.9454 | 13.82012 | – |